createdAt,value
2023-05-04T00:00:24.821Z,80.70
2023-05-04T00:01:29.106Z,80.69
2023-05-04T00:02:33.481Z,80.70
2023-05-04T00:03:37.808Z,80.69
2023-05-04T00:04:41.785Z,80.72
2023-05-04T00:05:45.981Z,80.72
2023-05-04T00:06:50.273Z,80.71
2023-05-04T00:07:54.498Z,80.64
2023-05-04T00:08:58.668Z,80.57
2023-05-04T00:10:03.432Z,80.55
2023-05-04T00:11:07.110Z,80.56
2023-05-04T00:12:11.303Z,80.54
2023-05-04T00:13:15.707Z,80.66
2023-05-04T00:14:19.854Z,80.66
2023-05-04T00:15:24.031Z,80.68
2023-05-04T00:16:28.241Z,80.72
2023-05-04T00:17:32.509Z,80.81
2023-05-04T00:18:36.678Z,80.91
2023-05-04T00:19:40.901Z,81.01
2023-05-04T00:20:45.319Z,81.10
2023-05-04T00:21:49.407Z,81.23
2023-05-04T00:22:53.741Z,81.38
2023-05-04T00:23:57.904Z,81.46
2023-05-04T00:25:02.164Z,81.56
2023-05-04T00:26:06.393Z,81.62
2023-05-04T00:27:10.600Z,81.68
2023-05-04T00:28:14.879Z,81.74
2023-05-04T00:29:19.057Z,81.81
2023-05-04T00:30:23.251Z,81.87
2023-05-04T00:31:27.550Z,81.92
2023-05-04T00:32:31.797Z,81.96
2023-05-04T00:33:35.943Z,81.98
2023-05-04T00:34:40.252Z,82.02
2023-05-04T00:35:47.422Z,82.06
2023-05-04T00:36:50.749Z,82.09
2023-05-04T00:37:54.928Z,82.18
2023-05-04T00:38:59.157Z,82.19
2023-05-04T00:40:03.675Z,82.19
2023-05-04T00:41:07.603Z,82.17
2023-05-04T00:42:11.837Z,82.09
2023-05-04T00:43:16.171Z,82.06
2023-05-04T00:44:20.381Z,82.03
2023-05-04T00:45:24.673Z,81.92
2023-05-04T00:46:28.862Z,81.85
2023-05-04T00:47:33.122Z,81.80
2023-05-04T00:48:37.323Z,81.76
2023-05-04T00:49:41.548Z,81.71
2023-05-04T00:50:45.784Z,81.63
2023-05-04T00:51:49.963Z,81.57
2023-05-04T00:52:54.229Z,81.49
2023-05-04T00:53:58.509Z,81.42
2023-05-04T00:55:02.698Z,81.39
2023-05-04T00:56:07.099Z,81.33
2023-05-04T00:57:11.224Z,81.27
2023-05-04T00:58:15.504Z,81.18
2023-05-04T00:59:19.693Z,81.09
2023-05-04T01:00:23.898Z,80.98
2023-05-04T01:01:28.204Z,80.89
2023-05-04T01:02:32.394Z,80.80
2023-05-04T01:03:36.741Z,80.74
2023-05-04T01:04:40.884Z,80.69
2023-05-04T01:05:45.097Z,80.64
2023-05-04T01:06:49.287Z,80.61
2023-05-04T01:07:53.512Z,80.63
2023-05-04T01:08:57.794Z,80.69
2023-05-04T01:10:16.045Z,80.73
2023-05-04T01:11:19.254Z,80.79
2023-05-04T01:12:23.488Z,80.79
2023-05-04T01:13:27.676Z,80.82
2023-05-04T01:14:31.815Z,80.83
2023-05-04T01:15:36.133Z,80.83
2023-05-04T01:16:40.418Z,80.80
2023-05-04T01:17:44.573Z,80.79
2023-05-04T01:18:48.764Z,80.84
2023-05-04T01:19:52.956Z,80.93
2023-05-04T01:20:57.144Z,81.08
2023-05-04T01:22:01.410Z,81.24
2023-05-04T01:23:05.578Z,81.57
2023-05-04T01:24:09.968Z,81.68
2023-05-04T01:25:14.021Z,81.87
2023-05-04T01:26:18.204Z,82.03
2023-05-04T01:27:22.416Z,82.19
2023-05-04T01:28:26.694Z,82.36
2023-05-04T01:29:30.974Z,82.51
2023-05-04T01:30:35.147Z,82.58
2023-05-04T01:31:39.344Z,82.66
2023-05-04T01:32:43.528Z,82.74
2023-05-04T01:33:47.745Z,82.78
2023-05-04T01:34:52.049Z,82.90
2023-05-04T01:35:56.267Z,83.03
2023-05-04T01:37:00.511Z,83.14
2023-05-04T01:38:04.667Z,83.24
2023-05-04T01:39:08.876Z,83.31
2023-05-04T01:40:16.195Z,83.34
2023-05-04T01:41:19.397Z,83.28
2023-05-04T01:42:23.592Z,83.21
2023-05-04T01:43:27.804Z,83.16
2023-05-04T01:44:31.995Z,83.09
2023-05-04T01:45:36.215Z,82.98
2023-05-04T01:46:40.448Z,82.86
2023-05-04T01:47:44.806Z,82.71
2023-05-04T01:48:48.858Z,82.65
2023-05-04T01:49:53.164Z,82.66
2023-05-04T01:50:57.349Z,82.66
2023-05-04T01:52:01.654Z,82.59
2023-05-04T01:53:05.808Z,82.61
2023-05-04T01:54:09.968Z,82.57
2023-05-04T01:55:14.310Z,82.59
2023-05-04T01:56:18.622Z,82.52
2023-05-04T01:57:22.687Z,82.49
2023-05-04T01:58:26.911Z,82.51
2023-05-04T01:59:31.116Z,82.53
2023-05-04T02:00:35.334Z,82.62
2023-05-04T02:01:39.549Z,82.61
2023-05-04T02:02:44.013Z,82.49
2023-05-04T02:03:48.093Z,82.39
2023-05-04T02:04:52.220Z,82.41
2023-05-04T02:05:56.475Z,82.54
2023-05-04T02:07:00.700Z,82.56
2023-05-04T02:08:04.939Z,82.60
2023-05-04T02:09:09.127Z,82.62
2023-05-04T02:10:13.509Z,82.64
2023-05-04T02:11:17.743Z,82.61
2023-05-04T02:12:21.919Z,82.57
2023-05-04T02:13:26.196Z,82.57
2023-05-04T02:14:30.399Z,82.61
2023-05-04T02:15:34.603Z,82.58
2023-05-04T02:16:38.959Z,82.60
2023-05-04T02:17:43.231Z,82.62
2023-05-04T02:18:47.278Z,82.59
2023-05-04T02:19:51.608Z,82.57
2023-05-04T02:20:55.858Z,82.53
2023-05-04T02:27:46.337Z,82.50
2023-05-04T02:28:49.356Z,82.58
2023-05-04T02:29:53.484Z,82.62
2023-05-04T02:30:57.750Z,82.67
2023-05-04T02:32:02.062Z,82.59
2023-05-04T02:33:06.133Z,82.56
2023-05-04T02:34:10.388Z,82.58
2023-05-04T02:35:14.521Z,82.64
2023-05-04T02:36:18.774Z,82.73
2023-05-04T02:37:23.019Z,82.79
2023-05-04T02:38:27.179Z,82.86
2023-05-04T02:39:31.368Z,82.94
2023-05-04T02:40:35.595Z,83.00
2023-05-04T02:41:39.818Z,83.04
2023-05-04T02:42:44.171Z,83.04
2023-05-04T02:43:51.379Z,83.01
2023-05-04T02:44:54.608Z,82.97
2023-05-04T02:45:58.874Z,82.92
2023-05-04T02:47:03.036Z,82.92
2023-05-04T02:48:07.355Z,82.94
2023-05-04T02:49:11.521Z,82.94
2023-05-04T02:50:15.744Z,82.90
2023-05-04T02:51:20.041Z,82.93
2023-05-04T02:52:24.315Z,82.94
2023-05-04T02:53:28.468Z,83.02
2023-05-04T02:54:32.637Z,83.10
2023-05-04T02:55:36.870Z,83.17
2023-05-04T02:56:41.057Z,83.25
2023-05-04T02:57:45.264Z,83.32
2023-05-04T02:58:49.568Z,83.39
2023-05-04T02:59:53.738Z,83.49
2023-05-04T03:00:57.983Z,83.56
2023-05-04T03:02:02.114Z,83.56
2023-05-04T03:03:06.391Z,83.48
2023-05-04T03:04:10.513Z,83.36
2023-05-04T03:05:14.687Z,83.29
2023-05-04T03:06:18.908Z,83.22
2023-05-04T03:07:23.058Z,83.21
2023-05-04T03:08:27.377Z,83.21
2023-05-04T03:09:31.587Z,83.26
2023-05-04T03:10:35.787Z,83.37
2023-05-04T03:11:39.945Z,83.51
2023-05-04T03:12:44.287Z,83.69
2023-05-04T03:13:48.459Z,83.86
2023-05-04T03:14:52.594Z,84.03
2023-05-04T03:15:56.876Z,84.20
2023-05-04T03:17:00.952Z,84.33
2023-05-04T03:18:05.158Z,84.52
2023-05-04T03:19:09.315Z,84.66
2023-05-04T03:20:13.559Z,84.78
2023-05-04T03:21:17.772Z,84.92
2023-05-04T03:22:21.984Z,85.05
2023-05-04T03:23:26.223Z,85.11
2023-05-04T03:24:30.522Z,85.22
2023-05-04T03:25:34.792Z,85.32
2023-05-04T03:26:38.978Z,85.42
2023-05-04T03:27:43.116Z,85.56
2023-05-04T03:28:47.396Z,85.71
2023-05-04T03:29:51.641Z,85.78
2023-05-04T03:30:55.823Z,85.81
2023-05-04T03:32:00.230Z,85.80
2023-05-04T03:33:04.304Z,85.77
2023-05-04T03:34:08.480Z,85.70
2023-05-04T03:35:12.868Z,85.67
2023-05-04T03:36:16.928Z,85.69
2023-05-04T03:37:21.232Z,85.72
2023-05-04T03:38:25.361Z,85.72
2023-05-04T03:39:29.575Z,85.75
2023-05-04T03:40:33.767Z,85.71
2023-05-04T03:41:37.953Z,85.70
2023-05-04T03:42:42.144Z,85.71
2023-05-04T03:43:46.363Z,85.75
2023-05-04T03:44:50.547Z,85.75
2023-05-04T03:45:54.881Z,85.77
2023-05-04T03:46:59.023Z,85.75
2023-05-04T03:48:03.348Z,85.80
2023-05-04T03:49:07.496Z,85.81
2023-05-04T03:50:11.699Z,85.82
2023-05-04T03:51:15.880Z,85.75
2023-05-04T03:52:20.091Z,85.61
2023-05-04T03:53:24.316Z,85.50
2023-05-04T03:54:28.490Z,85.42
2023-05-04T03:55:32.683Z,85.32
2023-05-04T03:56:36.970Z,85.31
2023-05-04T03:57:47.204Z,85.31
2023-05-04T03:58:50.050Z,85.38
2023-05-04T03:59:57.020Z,85.45
2023-05-04T04:00:58.374Z,85.60
2023-05-04T04:02:02.683Z,85.67
2023-05-04T04:03:07.034Z,85.74
2023-05-04T04:04:11.149Z,85.81
2023-05-04T04:05:15.290Z,85.86
2023-05-04T04:06:19.479Z,85.89
2023-05-04T04:07:23.739Z,85.91
2023-05-04T04:08:27.899Z,85.93
2023-05-04T04:09:32.170Z,85.89
2023-05-04T04:10:36.372Z,85.95
2023-05-04T04:11:40.577Z,85.94
2023-05-04T04:12:44.842Z,85.92
2023-05-04T04:13:48.942Z,85.94
2023-05-04T04:14:53.077Z,85.95
2023-05-04T04:15:57.343Z,85.99
2023-05-04T04:17:01.491Z,86.07
2023-05-04T04:18:05.978Z,86.15
2023-05-04T04:19:10.010Z,86.11
2023-05-04T04:20:14.157Z,86.05
2023-05-04T04:21:18.333Z,86.01
2023-05-04T04:22:22.559Z,85.93
2023-05-04T04:23:26.836Z,85.91
2023-05-04T04:24:31.037Z,85.85
2023-05-04T04:25:35.244Z,85.82
2023-05-04T04:26:39.535Z,85.78
2023-05-04T04:27:43.652Z,85.71
2023-05-04T04:28:47.888Z,85.70
2023-05-04T04:29:52.064Z,85.69
2023-05-04T04:30:56.363Z,85.64
2023-05-04T04:32:00.640Z,85.64
2023-05-04T04:33:04.795Z,85.68
2023-05-04T04:34:09.006Z,85.76
2023-05-04T04:35:13.217Z,85.86
2023-05-04T04:36:17.384Z,85.99
2023-05-04T04:37:21.719Z,86.11
2023-05-04T04:38:25.802Z,86.25
2023-05-04T04:39:30.034Z,86.41
2023-05-04T04:40:34.223Z,86.59
2023-05-04T04:41:38.447Z,86.72
2023-05-04T04:42:42.739Z,86.85
2023-05-04T04:43:46.927Z,87.09
2023-05-04T04:44:51.260Z,87.26
2023-05-04T04:45:55.385Z,87.42
2023-05-04T04:46:59.789Z,87.60
2023-05-04T04:48:03.929Z,87.79
2023-05-04T04:49:08.131Z,87.97
2023-05-04T04:50:12.319Z,88.18
2023-05-04T04:51:19.598Z,88.28
2023-05-04T04:52:22.818Z,88.48
2023-05-04T04:53:27.089Z,88.72
2023-05-04T04:54:31.262Z,88.95
2023-05-04T04:55:35.455Z,89.22
2023-05-04T04:56:39.697Z,89.46
2023-05-04T04:57:43.966Z,89.77
2023-05-04T04:58:48.101Z,90.21
2023-05-04T04:59:52.316Z,90.53
2023-05-04T05:00:56.677Z,90.80
2023-05-04T05:02:00.818Z,91.10
2023-05-04T05:03:05.075Z,91.39
2023-05-04T05:04:09.193Z,91.55
2023-05-04T05:05:13.623Z,91.73
2023-05-04T05:06:17.713Z,91.94
2023-05-04T05:07:21.978Z,92.09
2023-05-04T05:08:26.131Z,92.21
2023-05-04T05:09:30.356Z,92.31
2023-05-04T05:10:34.435Z,92.39
2023-05-04T05:11:38.680Z,92.52
2023-05-04T05:12:42.942Z,92.58
2023-05-04T05:13:47.115Z,92.47
2023-05-04T05:14:51.353Z,92.27
2023-05-04T05:15:55.669Z,92.06
2023-05-04T05:16:59.838Z,91.79
2023-05-04T05:18:04.125Z,91.49
2023-05-04T05:19:08.272Z,91.15
2023-05-04T05:20:12.590Z,90.80
2023-05-04T05:21:16.827Z,90.45
2023-05-04T05:22:21.037Z,90.05
2023-05-04T05:23:25.284Z,89.82
2023-05-04T05:24:29.459Z,89.52
2023-05-04T05:25:33.811Z,89.28
2023-05-04T05:26:37.991Z,89.15
2023-05-04T05:27:42.215Z,88.91
2023-05-04T05:28:46.431Z,88.67
2023-05-04T05:29:50.679Z,88.41
2023-05-04T05:30:55.014Z,88.18
2023-05-04T05:31:59.153Z,87.93
2023-05-04T05:33:03.497Z,87.72
2023-05-04T05:34:07.730Z,87.54
2023-05-04T05:35:11.935Z,87.36
2023-05-04T05:36:16.149Z,87.20
2023-05-04T05:37:20.343Z,87.05
2023-05-04T05:38:24.669Z,86.84
2023-05-04T05:39:28.930Z,86.77
2023-05-04T05:40:33.091Z,86.64
2023-05-04T05:41:37.444Z,86.53
2023-05-04T05:42:41.626Z,86.41
2023-05-04T05:43:45.832Z,86.31
2023-05-04T05:44:50.091Z,86.21
2023-05-04T05:45:54.482Z,86.14
2023-05-04T05:46:58.742Z,86.10
2023-05-04T05:48:02.989Z,86.05
2023-05-04T05:49:07.193Z,86.05
2023-05-04T05:50:11.443Z,86.21
2023-05-04T05:51:15.655Z,86.51
2023-05-04T05:52:19.904Z,86.69
2023-05-04T05:53:24.141Z,86.78
2023-05-04T05:54:28.405Z,86.92
2023-05-04T05:55:32.626Z,87.17
2023-05-04T05:56:36.836Z,87.55
2023-05-04T05:57:41.044Z,87.95
2023-05-04T05:58:45.235Z,88.36
2023-05-04T05:59:49.578Z,88.65
2023-05-04T06:00:53.753Z,88.89
2023-05-04T06:01:58.083Z,88.98
2023-05-04T06:03:02.398Z,89.02
2023-05-04T06:04:06.740Z,88.97
2023-05-04T06:05:10.784Z,88.87
2023-05-04T06:06:15.025Z,88.65
2023-05-04T06:07:19.211Z,88.59
2023-05-04T06:08:23.436Z,88.52
2023-05-04T06:09:27.895Z,88.41
2023-05-04T06:10:32.010Z,88.37
2023-05-04T06:11:36.380Z,88.26
2023-05-04T06:12:40.641Z,88.10
2023-05-04T06:13:44.796Z,87.94
2023-05-04T06:14:49.069Z,87.77
2023-05-04T06:15:53.346Z,87.50
2023-05-04T06:16:57.601Z,87.39
2023-05-04T06:18:02.014Z,87.25
2023-05-04T06:19:06.069Z,86.97
2023-05-04T06:20:10.381Z,86.75
2023-05-04T06:21:14.626Z,86.46
2023-05-04T06:22:18.906Z,86.07
2023-05-04T06:23:23.151Z,85.69
2023-05-04T06:24:27.390Z,85.51
2023-05-04T06:25:31.662Z,85.42
2023-05-04T06:26:35.834Z,85.29
2023-05-04T06:27:40.224Z,85.17
2023-05-04T06:28:44.438Z,85.11
2023-05-04T06:29:48.706Z,84.88
2023-05-04T06:30:52.992Z,84.35
2023-05-04T06:31:57.377Z,83.97
2023-05-04T06:33:01.727Z,83.65
2023-05-04T06:34:08.874Z,83.20
2023-05-04T06:35:12.241Z,82.01
2023-05-04T06:36:16.491Z,81.75
2023-05-04T06:37:20.836Z,81.19
2023-05-04T06:38:25.165Z,80.63
2023-05-04T06:39:29.334Z,80.39
2023-05-04T06:40:33.752Z,80.54
2023-05-04T06:41:37.955Z,80.21
2023-05-04T06:42:42.275Z,80.13
2023-05-04T06:43:46.739Z,80.19
2023-05-04T06:44:50.965Z,79.92
2023-05-04T06:45:55.264Z,79.21
2023-05-04T06:46:59.497Z,79.28
2023-05-04T06:48:03.874Z,79.52
2023-05-04T06:49:08.134Z,79.72
2023-05-04T06:50:12.407Z,80.03
2023-05-04T06:51:16.712Z,80.19
2023-05-04T06:52:21.064Z,80.26
2023-05-04T06:53:25.303Z,79.88
2023-05-04T06:54:29.663Z,78.70
2023-05-04T06:55:33.947Z,78.52
2023-05-04T06:56:38.285Z,78.67
2023-05-04T06:57:42.554Z,78.83
2023-05-04T06:58:49.898Z,78.79
2023-05-04T06:59:53.308Z,78.86
2023-05-04T07:00:57.621Z,79.06
2023-05-04T07:02:01.942Z,78.49
2023-05-04T07:03:06.394Z,78.31
2023-05-04T07:04:10.723Z,78.25
2023-05-04T07:05:15.002Z,77.89
2023-05-04T07:06:19.387Z,76.33
2023-05-04T07:07:23.733Z,75.25
2023-05-04T07:08:27.998Z,75.26
2023-05-04T07:09:32.424Z,75.46
2023-05-04T07:10:36.674Z,75.07
2023-05-04T07:11:41.093Z,74.47
2023-05-04T07:12:45.362Z,74.77
2023-05-04T07:13:49.642Z,74.55
2023-05-04T07:14:54.092Z,74.32
2023-05-04T07:15:58.269Z,74.77
2023-05-04T07:17:02.537Z,74.95
2023-05-04T07:18:06.899Z,75.01
2023-05-04T07:19:11.148Z,74.73
2023-05-04T07:20:15.490Z,74.23
2023-05-04T07:21:27.871Z,74.50
2023-05-04T07:22:24.091Z,73.41
2023-05-04T07:23:28.478Z,72.87
2023-05-04T07:24:32.613Z,72.68
2023-05-04T07:25:37.057Z,72.75
2023-05-04T07:26:41.391Z,71.94
2023-05-04T07:27:45.555Z,71.07
2023-05-04T07:28:49.901Z,71.21
2023-05-04T07:29:54.343Z,71.79
2023-05-04T07:30:58.658Z,72.50
2023-05-04T07:32:02.872Z,73.01
2023-05-04T07:33:07.206Z,73.28
2023-05-04T07:34:11.526Z,73.04
2023-05-04T07:35:15.780Z,73.30
2023-05-04T07:36:20.206Z,73.50
2023-05-04T07:37:24.587Z,73.61
2023-05-04T07:38:28.774Z,73.56
2023-05-04T07:39:33.071Z,73.47
2023-05-04T07:40:37.392Z,73.34
2023-05-04T07:41:41.788Z,73.30
2023-05-04T07:42:46.222Z,73.32
2023-05-04T07:43:50.522Z,73.12
2023-05-04T07:44:54.677Z,73.24
2023-05-04T07:45:59.146Z,73.20
2023-05-04T07:47:03.397Z,73.16
2023-05-04T07:48:07.805Z,73.25
2023-05-04T07:49:12.073Z,73.20
2023-05-04T07:50:16.493Z,72.94
2023-05-04T07:51:20.726Z,72.74
2023-05-04T07:52:25.102Z,71.86
2023-05-04T07:53:29.389Z,70.12
2023-05-04T07:54:33.773Z,70.04
2023-05-04T07:55:38.096Z,69.21
2023-05-04T07:56:42.368Z,69.03
2023-05-04T07:57:46.696Z,69.28
2023-05-04T07:58:50.962Z,69.64
2023-05-04T07:59:55.283Z,69.90
2023-05-04T08:00:59.664Z,69.85
2023-05-04T08:02:04.015Z,70.14
2023-05-04T08:03:08.301Z,70.35
2023-05-04T08:04:12.645Z,70.83
2023-05-04T08:05:16.907Z,71.06
2023-05-04T08:06:21.183Z,71.32
2023-05-04T08:07:25.523Z,71.52
2023-05-04T08:08:29.877Z,70.36
2023-05-04T08:09:34.255Z,69.28
2023-05-04T08:10:38.502Z,69.32
2023-05-04T08:11:42.851Z,69.55
2023-05-04T08:12:47.165Z,70.09
2023-05-04T08:13:51.461Z,70.50
2023-05-04T08:14:55.950Z,70.09
2023-05-04T08:16:14.258Z,69.92
2023-05-04T08:17:17.405Z,69.61
2023-05-04T08:18:21.664Z,69.56
2023-05-04T08:19:25.896Z,69.76
2023-05-04T08:20:30.183Z,69.97
2023-05-04T08:21:34.582Z,69.27
2023-05-04T08:22:38.901Z,69.18
2023-05-04T08:23:43.287Z,68.86
2023-05-04T08:24:47.709Z,68.78
2023-05-04T08:25:51.867Z,68.89
2023-05-04T08:27:07.203Z,69.42
2023-05-04T08:28:00.421Z,69.41
2023-05-04T08:29:04.798Z,69.24
2023-05-04T08:30:09.053Z,69.50
2023-05-04T08:31:13.589Z,69.79
2023-05-04T08:32:17.752Z,69.42
2023-05-04T08:33:22.026Z,69.89
2023-05-04T08:34:26.590Z,68.31
2023-05-04T08:35:30.736Z,67.06
2023-05-04T08:36:34.997Z,67.29
2023-05-04T08:37:39.387Z,67.75
2023-05-04T08:38:43.669Z,68.17
2023-05-04T08:39:47.969Z,68.83
2023-05-04T08:40:52.330Z,69.08
2023-05-04T08:41:56.688Z,69.33
2023-05-04T08:43:01.025Z,69.45
2023-05-04T08:44:05.296Z,69.51
2023-05-04T08:45:09.628Z,69.12
2023-05-04T08:46:14.301Z,68.82
2023-05-04T08:47:18.556Z,68.96
2023-05-04T08:48:22.871Z,69.29
2023-05-04T08:49:27.129Z,69.48
2023-05-04T08:50:31.478Z,69.68
2023-05-04T08:51:35.880Z,69.64
2023-05-04T08:52:40.163Z,69.17
2023-05-04T08:53:44.556Z,68.87
2023-05-04T08:54:48.946Z,69.06
2023-05-04T08:55:53.298Z,69.10
2023-05-04T08:56:57.563Z,68.58
2023-05-04T08:58:01.779Z,67.94
2023-05-04T08:59:06.269Z,68.14
2023-05-04T09:00:10.630Z,68.10
2023-05-04T09:01:14.982Z,68.59
2023-05-04T09:02:19.249Z,68.92
2023-05-04T09:03:23.680Z,69.11
2023-05-04T09:04:29.679Z,68.94
2023-05-04T09:05:32.273Z,66.59
2023-05-04T09:06:36.661Z,64.89
2023-05-04T09:07:54.981Z,65.65
2023-05-04T09:08:58.275Z,66.53
2023-05-04T09:10:02.675Z,67.03
2023-05-04T09:11:07.015Z,67.21
2023-05-04T09:12:11.260Z,67.14
2023-05-04T09:13:15.729Z,66.96
2023-05-04T09:14:19.867Z,67.05
2023-05-04T09:15:24.226Z,67.33
2023-05-04T09:16:42.656Z,67.50
2023-05-04T09:17:56.946Z,67.54
2023-05-04T09:18:49.824Z,67.72
2023-05-04T09:19:54.133Z,67.82
2023-05-04T09:20:58.429Z,66.49
2023-05-04T09:22:02.904Z,66.29
2023-05-04T09:23:07.399Z,66.07
2023-05-04T09:24:11.544Z,66.64
2023-05-04T09:25:15.868Z,66.80
2023-05-04T09:26:20.265Z,66.40
2023-05-04T09:27:24.580Z,66.08
2023-05-04T09:28:29.040Z,66.37
2023-05-04T09:29:33.391Z,65.17
2023-05-04T09:30:37.897Z,64.59
2023-05-04T09:31:42.166Z,63.72
2023-05-04T09:32:46.638Z,63.10
2023-05-04T09:33:53.274Z,63.43
2023-05-04T09:34:55.239Z,63.61
2023-05-04T09:35:59.616Z,64.08
2023-05-04T09:37:03.900Z,64.95
2023-05-04T09:38:08.316Z,65.66
2023-05-04T09:39:12.534Z,66.12
2023-05-04T09:40:16.984Z,66.42
2023-05-04T09:41:21.347Z,66.51
2023-05-04T09:42:25.685Z,66.37
2023-05-04T09:43:29.967Z,66.38
2023-05-04T09:44:48.499Z,66.28
2023-05-04T09:45:51.745Z,66.19
2023-05-04T09:46:55.970Z,65.86
2023-05-04T09:48:00.443Z,65.83
2023-05-04T09:49:04.625Z,65.87
2023-05-04T09:50:09.013Z,65.90
2023-05-04T09:51:13.289Z,66.09
2023-05-04T09:52:17.753Z,66.10
2023-05-04T09:53:22.110Z,66.10
2023-05-04T09:54:26.492Z,65.50
2023-05-04T09:55:30.840Z,65.68
2023-05-04T09:56:35.141Z,65.69
2023-05-04T09:57:39.545Z,65.61
2023-05-04T09:58:43.881Z,65.53
2023-05-04T09:59:48.246Z,65.74
2023-05-04T10:00:52.632Z,65.98
2023-05-04T10:01:58.685Z,66.01
2023-05-04T10:03:01.233Z,65.88
2023-05-04T10:04:05.601Z,65.72
2023-05-04T10:05:09.983Z,65.75
2023-05-04T10:06:14.320Z,65.79
2023-05-04T10:07:18.597Z,64.44
2023-05-04T10:08:37.076Z,63.09
2023-05-04T10:09:40.409Z,62.58
2023-05-04T10:10:44.733Z,61.90
2023-05-04T10:12:03.094Z,62.11
2023-05-04T10:13:06.522Z,62.34
2023-05-04T10:14:10.711Z,62.71
2023-05-04T10:15:15.130Z,63.29
2023-05-04T10:16:19.520Z,63.73
2023-05-04T10:17:23.815Z,64.10
2023-05-04T10:18:28.192Z,62.74
2023-05-04T10:19:32.580Z,61.48
2023-05-04T10:20:36.868Z,61.03
2023-05-04T10:21:41.323Z,60.76
2023-05-04T10:22:45.685Z,61.06
2023-05-04T10:23:50.020Z,61.03
2023-05-04T10:24:54.416Z,61.02
2023-05-04T10:25:58.768Z,61.75
2023-05-04T10:27:03.133Z,62.02
2023-05-04T10:28:07.576Z,62.13
2023-05-04T10:29:11.981Z,62.37
2023-05-04T10:30:16.250Z,63.00
2023-05-04T10:31:20.668Z,63.32
2023-05-04T10:32:24.970Z,63.35
2023-05-04T10:33:29.232Z,63.60
2023-05-04T10:34:33.717Z,63.69
2023-05-04T10:35:37.971Z,63.85
2023-05-04T10:36:42.322Z,63.90
2023-05-04T10:37:46.687Z,63.84
2023-05-04T10:38:51.040Z,63.35
2023-05-04T10:39:55.418Z,63.62
2023-05-04T10:40:59.783Z,63.77
2023-05-04T10:42:04.272Z,62.47
2023-05-04T10:43:08.595Z,62.13
2023-05-04T10:44:12.846Z,62.38
2023-05-04T10:45:17.273Z,61.36
2023-05-04T10:46:21.638Z,60.13
2023-05-04T10:47:26.028Z,61.09
2023-05-04T10:48:30.362Z,61.84
2023-05-04T10:49:34.722Z,61.35
2023-05-04T10:50:39.112Z,61.69
2023-05-04T10:51:49.300Z,61.54
2023-05-04T10:52:47.739Z,61.69
2023-05-04T10:53:52.150Z,61.14
2023-05-04T10:54:56.434Z,60.58
2023-05-04T10:56:01.040Z,61.47
2023-05-04T10:57:05.209Z,61.46
2023-05-04T10:58:09.524Z,61.25
2023-05-04T10:59:13.842Z,60.54
2023-05-04T11:00:18.256Z,60.63
2023-05-04T11:01:22.666Z,60.86
2023-05-04T11:02:39.103Z,60.71
2023-05-04T11:03:41.863Z,59.17
2023-05-04T11:04:45.882Z,58.33
2023-05-04T11:05:50.289Z,58.31
2023-05-04T11:06:54.553Z,57.17
2023-05-04T11:08:13.070Z,57.27
2023-05-04T11:09:16.531Z,58.35
2023-05-04T11:10:20.867Z,58.56
2023-05-04T11:11:25.267Z,58.81
2023-05-04T11:12:29.511Z,58.05
2023-05-04T11:13:33.953Z,58.25
2023-05-04T11:14:38.188Z,58.71
2023-05-04T11:15:42.612Z,58.92
2023-05-04T11:16:47.132Z,59.86
2023-05-04T11:17:51.336Z,60.21
2023-05-04T11:18:55.678Z,60.65
2023-05-04T11:20:00.059Z,60.71
2023-05-04T11:21:04.348Z,58.15
2023-05-04T11:22:08.754Z,57.84
2023-05-04T11:23:13.121Z,58.94
2023-05-04T11:24:17.500Z,59.57
2023-05-04T11:25:21.892Z,59.82
2023-05-04T11:26:26.156Z,59.96
2023-05-04T11:27:30.727Z,60.18
2023-05-04T11:28:35.005Z,59.70
2023-05-04T11:29:39.311Z,59.10
2023-05-04T11:30:43.857Z,58.31
2023-05-04T11:31:48.215Z,58.47
2023-05-04T11:32:52.470Z,58.79
2023-05-04T11:33:56.852Z,59.47
2023-05-04T11:35:01.245Z,59.77
2023-05-04T11:36:05.622Z,59.77
2023-05-04T11:37:09.943Z,59.85
2023-05-04T11:39:41.343Z,59.00
2023-05-04T11:40:45.693Z,59.14
2023-05-04T11:41:50.083Z,58.59
2023-05-04T11:42:56.766Z,59.29
2023-05-04T11:43:58.733Z,59.10
2023-05-04T11:45:03.383Z,59.21
2023-05-04T11:46:07.574Z,60.06
2023-05-04T11:47:11.944Z,60.44
2023-05-04T11:49:43.658Z,60.35
2023-05-04T11:50:48.026Z,60.37
2023-05-04T11:51:52.293Z,59.13
2023-05-04T11:52:56.566Z,58.23
2023-05-04T11:54:01.147Z,57.93
2023-05-04T11:55:05.831Z,58.41
2023-05-04T11:56:09.914Z,58.46
2023-05-04T11:57:14.311Z,58.09
2023-05-04T11:58:18.601Z,57.42
2023-05-04T11:59:22.898Z,57.26
2023-05-04T12:00:27.211Z,57.53
2023-05-04T12:01:31.589Z,57.33
2023-05-04T12:02:36.074Z,57.00
2023-05-04T12:03:53.336Z,57.47
2023-05-04T12:04:44.721Z,57.83
2023-05-04T12:05:49.069Z,58.68
2023-05-04T12:06:53.559Z,57.73
2023-05-04T12:07:57.968Z,57.30
2023-05-04T12:09:02.230Z,56.89
2023-05-04T12:10:06.607Z,56.42
2023-05-04T12:11:10.935Z,57.13
2023-05-04T12:12:15.306Z,56.96
2023-05-04T12:13:19.905Z,57.04
2023-05-04T12:14:24.106Z,57.70
2023-05-04T12:15:28.510Z,56.96
2023-05-04T12:16:32.954Z,56.84
2023-05-04T12:17:37.258Z,56.52
2023-05-04T12:18:41.699Z,56.34
2023-05-04T12:19:46.049Z,57.20
2023-05-04T12:20:50.335Z,58.10
2023-05-04T12:22:08.705Z,57.27
2023-05-04T12:23:12.085Z,57.46
2023-05-04T12:24:16.495Z,57.13
2023-05-04T12:25:20.778Z,56.14
2023-05-04T12:26:25.177Z,56.59
2023-05-04T12:27:29.468Z,55.43
2023-05-04T12:28:33.823Z,55.51
2023-05-04T12:29:38.246Z,56.10
2023-05-04T12:30:42.622Z,56.24
2023-05-04T12:31:46.955Z,56.91
2023-05-04T12:32:51.276Z,56.61
2023-05-04T12:33:55.592Z,56.26
2023-05-04T12:34:59.951Z,56.11
2023-05-04T12:36:10.492Z,56.29
2023-05-04T12:37:13.428Z,55.37
2023-05-04T12:38:17.706Z,54.68
2023-05-04T12:39:22.174Z,55.01
2023-05-04T12:40:28.576Z,55.18
2023-05-04T12:41:30.806Z,56.20
2023-05-04T12:42:35.265Z,55.45
2023-05-04T12:43:39.574Z,55.08
2023-05-04T12:44:44.126Z,54.87
2023-05-04T12:45:48.299Z,56.02
2023-05-04T12:46:52.649Z,56.75
2023-05-04T12:47:57.110Z,56.84
2023-05-04T12:49:01.527Z,56.50
2023-05-04T12:50:05.841Z,56.46
2023-05-04T12:51:10.265Z,56.40
2023-05-04T12:52:14.638Z,56.73
2023-05-04T12:53:18.942Z,56.52
2023-05-04T12:54:23.362Z,56.84
2023-05-04T12:55:27.744Z,56.52
2023-05-04T12:56:32.043Z,56.81
2023-05-04T12:57:36.453Z,57.02
2023-05-04T12:58:40.839Z,56.80
2023-05-04T12:59:45.154Z,55.65
2023-05-04T13:00:49.607Z,55.86
2023-05-04T13:01:53.981Z,56.17
2023-05-04T13:02:58.424Z,55.61
2023-05-04T13:04:02.571Z,55.72
2023-05-04T13:05:07.279Z,56.30
2023-05-04T13:06:11.304Z,56.22
2023-05-04T13:07:15.767Z,56.30
2023-05-04T13:08:20.143Z,56.72
2023-05-04T13:09:24.397Z,57.49
2023-05-04T13:10:28.795Z,58.11
2023-05-04T13:11:33.199Z,57.93
2023-05-04T13:12:38.690Z,57.18
2023-05-04T13:13:41.918Z,57.90
2023-05-04T13:14:46.256Z,57.81
2023-05-04T13:15:50.645Z,57.65
2023-05-04T13:16:55.148Z,57.01
2023-05-04T13:17:59.472Z,57.80
2023-05-04T13:19:03.870Z,57.47
2023-05-04T13:20:08.399Z,57.16
2023-05-04T13:21:12.565Z,57.79
2023-05-04T13:22:16.997Z,58.09
2023-05-04T13:23:21.365Z,58.17
2023-05-04T13:24:25.664Z,56.99
2023-05-04T13:25:30.092Z,56.88
2023-05-04T13:26:34.499Z,57.37
2023-05-04T13:27:38.877Z,57.59
2023-05-04T13:28:43.250Z,57.02
2023-05-04T13:29:47.644Z,56.62
2023-05-04T13:30:52.054Z,57.00
2023-05-04T13:31:56.472Z,57.12
2023-05-04T13:33:02.438Z,57.76
2023-05-04T13:34:05.116Z,58.50
2023-05-04T13:35:23.524Z,59.34
2023-05-04T13:36:40.749Z,59.15
2023-05-04T13:37:44.146Z,59.05
2023-05-04T13:38:48.437Z,58.60
2023-05-04T13:39:52.799Z,58.58
2023-05-04T13:40:57.121Z,58.48
2023-05-04T13:42:01.543Z,57.95
2023-05-04T13:43:05.866Z,57.65
2023-05-04T13:44:10.176Z,57.54
2023-05-04T13:45:17.623Z,58.27
2023-05-04T13:46:21.031Z,58.50
2023-05-04T13:47:25.357Z,57.94
2023-05-04T13:48:29.787Z,58.33
2023-05-04T13:49:34.125Z,58.62
2023-05-04T13:50:38.553Z,58.82
2023-05-04T13:51:42.940Z,59.13
2023-05-04T13:52:47.325Z,59.37
2023-05-04T13:53:51.669Z,57.64
2023-05-04T13:54:56.048Z,57.12
2023-05-04T13:56:00.497Z,57.43
2023-05-04T13:57:04.833Z,58.27
2023-05-04T13:58:09.166Z,58.37
2023-05-04T13:59:13.572Z,58.58